createdAt,value
2022-08-29T04:03:08.835Z,2.42
2022-08-29T04:05:36.866Z,2.35
2022-08-29T04:08:05.264Z,1.90
2022-08-29T04:10:35.055Z,2.40
2022-08-29T04:13:03.165Z,2.45
2022-08-29T04:15:32.417Z,2.60
2022-08-29T04:18:02.724Z,2.67
2022-08-29T04:20:34.341Z,3.05
2022-08-29T04:23:02.967Z,2.92
2022-08-29T04:25:37.144Z,3.17
2022-08-29T04:28:06.005Z,2.20
2022-08-29T04:30:33.738Z,2.15
2022-08-29T04:33:01.959Z,1.60
2022-08-29T04:35:29.830Z,1.95
2022-08-29T04:37:58.819Z,1.85
2022-08-29T04:40:26.454Z,2.00
2022-08-29T04:42:54.058Z,1.88
2022-08-29T04:45:23.889Z,2.17
2022-08-29T04:47:53.072Z,1.63
2022-08-29T04:50:22.873Z,1.98
2022-08-29T04:52:52.209Z,1.98
2022-08-29T04:55:25.632Z,2.50
2022-08-29T04:57:56.194Z,2.50
2022-08-29T05:00:27.985Z,2.08
2022-08-29T05:02:56.259Z,2.20
2022-08-29T05:05:23.921Z,4.65
2022-08-29T05:07:51.505Z,2.47
2022-08-29T05:10:22.419Z,3.00
2022-08-29T05:12:50.275Z,2.30
2022-08-29T05:15:18.567Z,2.45
2022-08-29T05:17:46.417Z,2.55
2022-08-29T05:20:14.586Z,1.55
2022-08-29T05:22:43.535Z,2.15
2022-08-29T05:25:18.024Z,1.90
2022-08-29T05:27:47.820Z,2.22
2022-08-29T05:30:16.323Z,2.30
2022-08-29T05:32:54.837Z,2.15
2022-08-29T05:35:22.422Z,2.13
2022-08-29T05:37:50.022Z,2.05
2022-08-29T05:40:18.210Z,1.83
2022-08-29T05:42:47.265Z,2.22
2022-08-29T05:45:17.438Z,2.13
2022-08-29T05:47:45.572Z,2.30
2022-08-29T05:50:13.624Z,2.35
2022-08-29T05:52:42.004Z,2.50
2022-08-29T05:55:10.336Z,2.30
2022-08-29T05:57:38.135Z,1.75
2022-08-29T06:00:09.296Z,2.55
2022-08-29T06:02:36.946Z,2.72
2022-08-29T06:05:05.526Z,2.92
2022-08-29T06:07:34.039Z,3.08
2022-08-29T06:10:06.568Z,2.15
2022-08-29T06:12:34.873Z,2.28
2022-08-29T06:15:03.048Z,2.47
2022-08-29T06:17:31.949Z,2.50
2022-08-29T06:19:59.554Z,3.42
2022-08-29T06:22:27.139Z,2.58
2022-08-29T06:24:55.494Z,2.45
2022-08-29T06:27:25.402Z,2.45
2022-08-29T06:29:53.090Z,2.40
2022-08-29T06:32:20.875Z,2.05
2022-08-29T06:34:50.113Z,3.15
2022-08-29T06:37:18.099Z,3.33
2022-08-29T06:39:45.688Z,2.35
2022-08-29T06:42:13.241Z,2.25
2022-08-29T06:44:44.383Z,4.45
2022-08-29T06:47:12.626Z,3.42
2022-08-29T06:49:40.691Z,1.92
2022-08-29T06:52:10.773Z,2.72
2022-08-29T06:54:38.597Z,2.42
2022-08-29T06:57:06.712Z,2.60
2022-08-29T06:59:34.357Z,2.60
2022-08-29T07:02:02.033Z,2.30
2022-08-29T07:04:30.906Z,3.22
2022-08-29T07:06:58.517Z,3.28
2022-08-29T07:09:27.406Z,2.53
2022-08-29T07:11:54.989Z,2.88
2022-08-29T07:14:22.867Z,3.42
2022-08-29T07:16:50.439Z,3.08
2022-08-29T07:19:18.109Z,3.38
2022-08-29T07:21:45.764Z,2.72
2022-08-29T07:24:13.425Z,3.42
2022-08-29T07:26:44.410Z,3.13
2022-08-29T07:29:14.589Z,2.95
2022-08-29T07:31:42.377Z,3.10
2022-08-29T07:34:10.873Z,2.80
2022-08-29T07:36:39.257Z,3.40
2022-08-29T07:39:09.707Z,2.67
2022-08-29T07:41:38.562Z,3.65
2022-08-29T07:44:07.537Z,2.72
2022-08-29T07:46:36.009Z,3.13
2022-08-29T07:49:03.754Z,3.67
2022-08-29T07:51:31.462Z,2.70
2022-08-29T07:53:59.338Z,2.75
2022-08-29T07:56:29.184Z,2.45
2022-08-29T07:59:00.150Z,4.05
2022-08-29T08:01:29.103Z,2.78
2022-08-29T08:03:56.699Z,3.70
2022-08-29T08:06:27.486Z,3.20
2022-08-29T08:08:56.399Z,3.20
2022-08-29T08:11:25.809Z,2.65
2022-08-29T08:13:54.421Z,2.95
2022-08-29T08:16:24.863Z,3.28
2022-08-29T08:18:54.916Z,3.20
2022-08-29T08:21:23.250Z,3.47
2022-08-29T08:23:52.109Z,2.80
2022-08-29T08:26:20.479Z,2.88
2022-08-29T08:28:49.115Z,3.75
2022-08-29T08:31:18.322Z,3.15
2022-08-29T08:33:47.590Z,2.80
2022-08-29T08:36:20.368Z,4.10
2022-08-29T08:38:48.477Z,3.42
2022-08-29T08:41:30.363Z,4.05
2022-08-29T08:43:59.824Z,3.40
2022-08-29T08:46:31.568Z,4.13
2022-08-29T08:49:01.960Z,6.88
2022-08-29T08:51:35.776Z,8.20
2022-08-29T08:54:08.444Z,5.38
2022-08-29T08:56:40.104Z,5.05
2022-08-29T08:59:11.377Z,4.63
2022-08-29T09:01:43.154Z,4.18
2022-08-29T09:04:36.773Z,4.95
2022-08-29T09:07:18.196Z,4.95
2022-08-29T09:10:03.620Z,5.90
2022-08-29T09:12:45.859Z,5.38
2022-08-29T09:15:20.681Z,6.57
2022-08-29T09:17:52.650Z,7.38
2022-08-29T09:20:23.607Z,6.78
2022-08-29T09:23:00.619Z,5.82
2022-08-29T09:25:30.102Z,6.00
2022-08-29T09:27:59.002Z,5.88
2022-08-29T09:30:29.034Z,5.55
2022-08-29T09:33:00.690Z,4.43
2022-08-29T09:35:33.890Z,5.28
2022-08-29T09:38:06.832Z,5.28
2022-08-29T09:40:51.308Z,5.60
2022-08-29T09:43:24.494Z,5.20
2022-08-29T09:46:08.736Z,5.03
2022-08-29T09:48:38.515Z,4.95
2022-08-29T09:51:12.046Z,7.05
2022-08-29T09:53:41.833Z,6.35
2022-08-29T09:56:18.030Z,5.10
2022-08-29T09:58:45.737Z,6.43
2022-08-29T10:01:19.236Z,5.35
2022-08-29T10:03:57.405Z,5.60
2022-08-29T10:06:29.811Z,5.10
2022-08-29T10:09:02.687Z,4.72
2022-08-29T10:11:37.826Z,5.63
2022-08-29T10:14:12.820Z,4.07
2022-08-29T10:16:49.476Z,4.95
2022-08-29T10:19:19.780Z,5.13
2022-08-29T10:21:59.665Z,5.20
2022-08-29T10:24:55.003Z,4.88
2022-08-29T10:27:30.977Z,5.88
2022-08-29T10:30:11.190Z,6.07
2022-08-29T10:33:04.549Z,4.60
2022-08-29T10:35:37.956Z,12.40
2022-08-29T10:38:15.346Z,6.32
2022-08-29T10:40:48.540Z,6.13
2022-08-29T10:43:34.914Z,5.63
2022-08-29T10:46:13.726Z,4.85
2022-08-29T10:48:50.112Z,5.25
2022-08-29T10:51:23.422Z,7.15
2022-08-29T10:53:56.073Z,6.72
2022-08-29T10:56:29.212Z,5.10
2022-08-29T10:59:04.621Z,5.90
2022-08-29T11:01:37.902Z,5.28
2022-08-29T11:04:17.500Z,5.43
2022-08-29T11:06:53.226Z,5.03
2022-08-29T11:09:26.203Z,5.20
2022-08-29T11:12:06.484Z,5.63
2022-08-29T11:14:41.148Z,4.57
2022-08-29T11:17:12.252Z,4.80
2022-08-29T11:19:51.113Z,4.70
2022-08-29T11:22:24.663Z,4.45
2022-08-29T11:25:02.207Z,5.13
2022-08-29T11:27:44.873Z,5.90
2022-08-29T11:30:18.965Z,4.55
2022-08-29T11:32:57.280Z,4.60
2022-08-29T11:35:29.844Z,5.43
2022-08-29T11:38:23.144Z,4.43
2022-08-29T11:41:31.037Z,4.28
2022-08-29T11:44:11.813Z,5.00
2022-08-29T11:46:44.122Z,4.95
2022-08-29T11:49:37.124Z,4.00
2022-08-29T11:52:29.998Z,4.03
2022-08-29T11:55:31.042Z,3.45
2022-08-29T11:58:05.206Z,3.70
2022-08-29T12:00:52.231Z,3.78
2022-08-29T12:03:56.819Z,3.90
2022-08-29T12:06:57.630Z,3.80
2022-08-29T12:09:47.044Z,3.55
2022-08-29T12:12:37.962Z,5.18
2022-08-29T12:15:47.874Z,5.03
2022-08-29T12:18:45.111Z,3.17
2022-08-29T12:21:48.665Z,4.45
2022-08-29T12:24:33.183Z,4.00
2022-08-29T12:27:02.234Z,4.53
2022-08-29T12:29:33.261Z,3.45
2022-08-29T12:32:31.496Z,3.92
2022-08-29T12:35:21.205Z,4.22
2022-08-29T12:38:08.332Z,4.22
2022-08-29T12:40:51.501Z,4.95
2022-08-29T12:43:31.877Z,4.32
2022-08-29T12:45:59.709Z,3.58
2022-08-29T12:48:34.080Z,4.43
2022-08-29T12:51:04.641Z,4.03
2022-08-29T12:53:35.714Z,3.70
2022-08-29T12:56:13.250Z,3.72
2022-08-29T12:58:43.657Z,4.28
2022-08-29T13:01:28.147Z,3.92
2022-08-29T13:03:57.869Z,5.28
2022-08-29T13:06:27.303Z,6.65
2022-08-29T13:08:54.869Z,5.07
2022-08-29T13:11:25.056Z,3.33
2022-08-29T13:14:05.010Z,9.65
2022-08-29T13:16:33.451Z,3.28
2022-08-29T13:19:10.891Z,5.00
2022-08-29T13:21:40.647Z,3.40
2022-08-29T13:24:13.509Z,3.28
2022-08-29T13:26:50.396Z,3.88
2022-08-29T13:29:36.853Z,2.97
2022-08-29T13:32:26.789Z,2.90
2022-08-29T13:35:02.144Z,2.85
2022-08-29T13:37:34.276Z,8.45
2022-08-29T13:40:30.490Z,4.55
2022-08-29T13:43:00.121Z,3.90
2022-08-29T13:45:28.558Z,3.60
2022-08-29T13:48:13.344Z,3.90
2022-08-29T13:50:41.542Z,2.95
2022-08-29T13:53:10.579Z,3.65
2022-08-29T13:55:38.499Z,3.70
2022-08-29T13:58:06.121Z,2.55
2022-08-29T14:00:35.501Z,2.80
2022-08-29T14:03:06.944Z,3.13
2022-08-29T14:05:35.520Z,3.45
2022-08-29T14:08:04.095Z,2.83
2022-08-29T14:10:33.158Z,4.55
2022-08-29T14:13:00.903Z,7.55
2022-08-29T14:15:28.507Z,5.55
2022-08-29T14:17:56.328Z,3.88
2022-08-29T14:20:25.237Z,2.65
2022-08-29T14:22:52.812Z,2.58
2022-08-29T14:25:21.530Z,2.72
2022-08-29T14:27:50.504Z,3.55
2022-08-29T14:30:21.137Z,2.28
2022-08-29T14:32:48.822Z,2.80
2022-08-29T14:35:25.822Z,2.60
2022-08-29T14:37:54.611Z,3.03
2022-08-29T14:40:23.092Z,7.95
2022-08-29T14:42:57.510Z,3.67
2022-08-29T14:45:25.228Z,3.25
2022-08-29T14:47:52.976Z,3.38
2022-08-29T14:50:21.256Z,3.10
2022-08-29T14:52:48.840Z,2.90
2022-08-29T14:55:18.813Z,2.70
2022-08-29T14:57:49.018Z,3.22
2022-08-29T15:00:22.554Z,2.60
2022-08-29T15:02:50.703Z,2.88
2022-08-29T15:05:18.504Z,2.83
2022-08-29T15:07:46.903Z,2.58
2022-08-29T15:10:18.945Z,2.47
2022-08-29T15:12:46.783Z,2.00
2022-08-29T15:15:14.745Z,2.10
2022-08-29T15:17:44.425Z,2.05
2022-08-29T15:23:01.988Z,2.33
2022-08-29T15:25:29.639Z,1.73
2022-08-29T15:27:57.268Z,1.67
2022-08-29T15:30:26.098Z,1.73
2022-08-29T15:32:55.000Z,1.50
2022-08-29T15:35:22.902Z,1.50
2022-08-29T15:37:50.859Z,1.48
2022-08-29T15:40:19.341Z,1.30
2022-08-29T15:42:47.646Z,1.65
2022-08-29T15:45:15.506Z,1.40
2022-08-29T15:47:45.992Z,1.33
2022-08-29T15:50:16.027Z,0.98
2022-08-29T15:52:43.979Z,2.55
2022-08-29T15:55:12.729Z,1.45
2022-08-29T15:57:52.296Z,1.52
2022-08-29T16:00:30.326Z,0.95
2022-08-29T16:03:01.462Z,1.00
2022-08-29T16:05:30.931Z,1.90
2022-08-29T16:07:58.963Z,1.42
2022-08-29T16:10:26.878Z,1.80
2022-08-29T16:12:54.617Z,1.40
2022-08-29T16:15:23.021Z,1.73
2022-08-29T16:17:51.278Z,1.38
2022-08-29T16:20:19.264Z,1.23
2022-08-29T16:22:51.477Z,1.88
2022-08-29T16:25:20.154Z,1.27
2022-08-29T16:27:48.133Z,1.30
2022-08-29T16:30:16.426Z,1.67
2022-08-29T16:32:44.768Z,1.27
2022-08-29T16:35:14.206Z,1.95
2022-08-29T16:37:41.937Z,1.08
2022-08-29T16:40:13.188Z,1.42
2022-08-29T16:42:41.629Z,1.27
2022-08-29T16:45:24.042Z,1.10
2022-08-29T16:47:56.794Z,0.98
2022-08-29T16:50:25.924Z,1.40
2022-08-29T16:52:54.196Z,0.95
2022-08-29T16:55:23.725Z,1.27
2022-08-29T16:58:05.401Z,1.52
2022-08-29T17:00:33.604Z,1.30
2022-08-29T17:03:01.524Z,1.15
2022-08-29T17:05:29.289Z,1.23
2022-08-29T17:07:55.925Z,1.25
2022-08-29T17:10:24.089Z,1.20
2022-08-29T17:12:50.838Z,1.30
2022-08-29T17:15:17.539Z,1.08
2022-08-29T17:17:45.285Z,1.23
2022-08-29T17:20:13.083Z,0.82
2022-08-29T17:22:40.933Z,0.95
2022-08-29T17:25:09.800Z,0.85
2022-08-29T17:27:38.899Z,1.05
2022-08-29T17:30:07.577Z,1.13
2022-08-29T17:32:35.361Z,1.65
2022-08-29T17:35:03.052Z,0.95
2022-08-29T17:37:35.959Z,1.02
2022-08-29T17:40:08.631Z,1.50
2022-08-29T17:42:39.216Z,1.05
2022-08-29T17:45:07.587Z,1.05
2022-08-29T17:47:35.374Z,1.05
2022-08-29T17:50:03.179Z,1.10
2022-08-29T17:52:31.150Z,1.15
2022-08-29T17:55:01.639Z,1.85
2022-08-29T17:57:33.068Z,1.50
2022-08-29T18:00:02.490Z,1.10
2022-08-29T18:02:32.006Z,0.82
2022-08-29T18:04:59.665Z,0.95
2022-08-29T18:07:28.615Z,1.23
2022-08-29T18:09:59.091Z,1.73
2022-08-29T18:12:26.934Z,1.13
2022-08-29T18:14:54.978Z,0.88
2022-08-29T18:17:23.969Z,1.52
2022-08-29T18:19:52.162Z,1.48
2022-08-29T18:22:20.064Z,1.83
2022-08-29T18:24:48.105Z,1.23
2022-08-29T18:27:15.883Z,1.42
2022-08-29T18:29:45.321Z,1.40
2022-08-29T18:32:13.164Z,2.13
2022-08-29T18:34:42.398Z,1.80
2022-08-29T18:37:10.475Z,1.40
2022-08-29T18:39:38.288Z,1.77
2022-08-29T18:42:20.309Z,1.73
2022-08-29T18:44:55.498Z,1.55
2022-08-29T18:47:23.368Z,2.25
2022-08-29T18:50:15.085Z,2.90
2022-08-29T18:52:42.774Z,1.80
2022-08-29T18:55:10.490Z,1.63
2022-08-29T18:57:44.939Z,1.40
2022-08-29T19:00:14.157Z,1.55
2022-08-29T19:02:41.857Z,1.10
2022-08-29T19:05:11.683Z,2.78
2022-08-29T19:07:39.747Z,3.58
2022-08-29T19:10:08.326Z,2.50
2022-08-29T19:12:36.280Z,1.35
2022-08-29T19:15:08.109Z,1.50
2022-08-29T19:17:37.730Z,1.50
2022-08-29T19:20:27.543Z,1.25
2022-08-29T19:22:56.910Z,1.77
2022-08-29T19:25:25.123Z,1.60
2022-08-29T19:27:53.768Z,2.05
2022-08-29T19:30:21.805Z,1.77
2022-08-29T19:32:49.851Z,1.60
2022-08-29T19:35:17.764Z,1.48
2022-08-29T19:37:45.548Z,1.70
2022-08-29T19:40:17.398Z,1.52
2022-08-29T19:42:46.814Z,1.70
2022-08-29T19:45:18.066Z,1.38
2022-08-29T19:47:45.945Z,1.70
2022-08-29T19:50:15.246Z,2.72
2022-08-29T19:52:43.677Z,1.48
2022-08-29T19:55:17.536Z,1.40
2022-08-29T19:57:46.452Z,1.90
2022-08-29T20:00:17.485Z,1.52
2022-08-29T20:02:45.954Z,1.33
2022-08-29T20:05:15.149Z,1.65
2022-08-29T20:07:44.980Z,2.17
2022-08-29T20:10:17.791Z,1.50
2022-08-29T20:12:49.724Z,1.98
2022-08-29T20:15:17.678Z,1.80
2022-08-29T20:17:46.589Z,1.95
2022-08-29T20:20:18.648Z,1.55
2022-08-29T20:22:47.026Z,1.35
2022-08-29T20:25:17.166Z,1.33
2022-08-29T20:27:46.504Z,1.30
2022-08-29T20:30:17.497Z,0.98
2022-08-29T20:32:47.770Z,1.17
2022-08-29T20:35:38.417Z,1.30
2022-08-29T20:38:05.439Z,0.90
2022-08-29T20:40:37.519Z,1.10
2022-08-29T20:43:06.153Z,0.88
2022-08-29T20:45:34.374Z,0.95
2022-08-29T20:48:02.807Z,1.25
2022-08-29T20:50:30.543Z,0.70
2022-08-29T20:53:00.678Z,0.75
2022-08-29T20:55:28.668Z,0.68
2022-08-29T20:57:57.819Z,0.65
2022-08-29T21:00:25.958Z,0.68
2022-08-29T21:03:12.322Z,0.50
2022-08-29T21:05:41.333Z,0.70
2022-08-29T21:08:10.399Z,0.80
2022-08-29T21:10:38.710Z,0.80
2022-08-29T21:13:09.094Z,0.73
2022-08-29T21:15:37.544Z,0.65
2022-08-29T21:18:06.238Z,0.70
2022-08-29T21:20:37.201Z,0.70
2022-08-29T21:23:13.166Z,0.70
2022-08-29T21:25:41.176Z,0.63
2022-08-29T21:28:10.068Z,0.70
2022-08-29T21:30:40.449Z,0.75
2022-08-29T21:33:11.197Z,1.00
2022-08-29T21:35:40.418Z,0.32
2022-08-29T21:38:08.466Z,0.60
2022-08-29T21:40:36.725Z,0.68
2022-08-29T21:43:20.661Z,0.47
2022-08-29T21:45:48.704Z,0.65
2022-08-29T21:48:16.630Z,0.60
2022-08-29T21:50:44.609Z,0.60
2022-08-29T21:53:12.536Z,0.70
2022-08-29T21:55:40.111Z,0.50
2022-08-29T21:58:07.948Z,0.35
2022-08-29T22:00:42.039Z,0.47
2022-08-29T22:03:12.214Z,0.55
2022-08-29T22:05:43.631Z,0.40
2022-08-29T22:08:13.297Z,0.52
2022-08-29T22:10:42.752Z,0.45
2022-08-29T22:13:10.604Z,0.60
2022-08-29T22:15:57.482Z,0.85
2022-08-29T22:18:25.097Z,0.60
2022-08-29T22:20:55.067Z,0.60
2022-08-29T22:23:24.437Z,0.75
2022-08-29T22:25:53.743Z,0.63
2022-08-29T22:28:21.407Z,0.65
2022-08-29T22:30:50.613Z,0.30
2022-08-29T22:33:18.448Z,0.55
2022-08-29T22:35:46.637Z,0.70
2022-08-29T22:38:14.294Z,0.60
2022-08-29T22:40:44.193Z,0.57
2022-08-29T22:43:12.189Z,0.55
2022-08-29T22:45:41.384Z,0.75
2022-08-29T22:48:10.852Z,0.82
2022-08-29T22:50:40.732Z,0.90
2022-08-29T22:53:14.038Z,0.90
2022-08-29T22:55:42.087Z,0.50
2022-08-29T22:58:10.282Z,0.60
